sensor_id;sensor_type;location;lat;lon;timestamp;temperature;humidity
21672;DHT22;10997;52.242;8.168;2023-05-15T00:04:52;12.30;99.90
21672;DHT22;10997;52.242;8.168;2023-05-15T00:09:52;12.30;99.90
21672;DHT22;10997;52.242;8.168;2023-05-15T00:14:53;12.20;99.90
21672;DHT22;10997;52.242;8.168;2023-05-15T00:19:53;12.10;99.90
21672;DHT22;10997;52.242;8.168;2023-05-15T00:24:58;12.00;99.90
21672;DHT22;10997;52.242;8.168;2023-05-15T00:29:59;11.90;99.90
21672;DHT22;10997;52.242;8.168;2023-05-15T00:34:59;11.80;99.90
21672;DHT22;10997;52.242;8.168;2023-05-15T00:40:00;11.70;99.90
21672;DHT22;10997;52.242;8.168;2023-05-15T00:45:01;11.60;99.90
21672;DHT22;10997;52.242;8.168;2023-05-15T00:50:02;11.50;99.90
21672;DHT22;10997;52.242;8.168;2023-05-15T00:55:04;11.40;99.90
21672;DHT22;10997;52.242;8.168;2023-05-15T01:00:06;11.30;99.90
21672;DHT22;10997;52.242;8.168;2023-05-15T01:05:09;11.20;99.90
21672;DHT22;10997;52.242;8.168;2023-05-15T01:10:10;11.10;99.90
21672;DHT22;10997;52.242;8.168;2023-05-15T01:15:11;11.00;99.90
21672;DHT22;10997;52.242;8.168;2023-05-15T01:20:13;11.00;99.90
21672;DHT22;10997;52.242;8.168;2023-05-15T01:30:42;10.90;99.90
21672;DHT22;10997;52.242;8.168;2023-05-15T01:36:00;10.80;99.90
21672;DHT22;10997;52.242;8.168;2023-05-15T01:41:20;10.80;99.90
21672;DHT22;10997;52.242;8.168;2023-05-15T01:46:22;10.70;99.90
21672;DHT22;10997;52.242;8.168;2023-05-15T01:51:25;10.70;99.90
21672;DHT22;10997;52.242;8.168;2023-05-15T01:56:27;10.60;99.90
21672;DHT22;10997;52.242;8.168;2023-05-15T02:01:28;10.60;99.90
21672;DHT22;10997;52.242;8.168;2023-05-15T02:06:30;10.60;99.90
21672;DHT22;10997;52.242;8.168;2023-05-15T02:11:32;10.60;99.90
21672;DHT22;10997;52.242;8.168;2023-05-15T02:16:32;10.60;99.90
21672;DHT22;10997;52.242;8.168;2023-05-15T02:21:34;10.40;99.90
21672;DHT22;10997;52.242;8.168;2023-05-15T02:32:08;10.30;99.90
21672;DHT22;10997;52.242;8.168;2023-05-15T02:37:16;10.20;99.90
21672;DHT22;10997;52.242;8.168;2023-05-15T02:42:21;10.20;99.90
21672;DHT22;10997;52.242;8.168;2023-05-15T02:47:22;10.10;99.90
21672;DHT22;10997;52.242;8.168;2023-05-15T02:52:23;10.10;99.90
21672;DHT22;10997;52.242;8.168;2023-05-15T02:57:24;10.00;99.90
21672;DHT22;10997;52.242;8.168;2023-05-15T03:02:25;9.90;99.90
21672;DHT22;10997;52.242;8.168;2023-05-15T03:07:25;9.90;99.90
21672;DHT22;10997;52.242;8.168;2023-05-15T03:12:26;9.90;99.90
21672;DHT22;10997;52.242;8.168;2023-05-15T03:17:27;10.00;99.90
21672;DHT22;10997;52.242;8.168;2023-05-15T03:22:27;9.90;99.90
21672;DHT22;10997;52.242;8.168;2023-05-15T03:27:28;9.90;99.90
21672;DHT22;10997;52.242;8.168;2023-05-15T03:32:28;9.90;99.90
21672;DHT22;10997;52.242;8.168;2023-05-15T03:37:29;9.80;99.90
21672;DHT22;10997;52.242;8.168;2023-05-15T03:42:29;9.70;99.90
21672;DHT22;10997;52.242;8.168;2023-05-15T03:47:30;9.60;99.90
21672;DHT22;10997;52.242;8.168;2023-05-15T03:52:30;9.70;99.90
21672;DHT22;10997;52.242;8.168;2023-05-15T03:57:31;9.70;99.90
21672;DHT22;10997;52.242;8.168;2023-05-15T04:02:32;9.70;99.90
21672;DHT22;10997;52.242;8.168;2023-05-15T04:07:34;9.80;99.90
21672;DHT22;10997;52.242;8.168;2023-05-15T04:12:35;9.80;99.90
21672;DHT22;10997;52.242;8.168;2023-05-15T04:17:39;9.90;99.90
21672;DHT22;10997;52.242;8.168;2023-05-15T04:22:40;10.00;99.90
21672;DHT22;10997;52.242;8.168;2023-05-15T04:27:42;9.80;99.90
21672;DHT22;10997;52.242;8.168;2023-05-15T04:32:43;10.00;99.90
21672;DHT22;10997;52.242;8.168;2023-05-15T04:37:43;10.10;99.90
21672;DHT22;10997;52.242;8.168;2023-05-15T04:42:46;10.20;99.90
21672;DHT22;10997;52.242;8.168;2023-05-15T04:47:47;10.30;99.90
21672;DHT22;10997;52.242;8.168;2023-05-15T04:52:48;10.50;99.90
21672;DHT22;10997;52.242;8.168;2023-05-15T04:57:48;10.70;99.90
21672;DHT22;10997;52.242;8.168;2023-05-15T05:02:50;10.90;99.90
21672;DHT22;10997;52.242;8.168;2023-05-15T05:07:51;11.10;99.90
21672;DHT22;10997;52.242;8.168;2023-05-15T05:12:51;11.20;99.90
21672;DHT22;10997;52.242;8.168;2023-05-15T05:17:52;11.40;99.90
21672;DHT22;10997;52.242;8.168;2023-05-15T05:22:53;11.60;99.90
21672;DHT22;10997;52.242;8.168;2023-05-15T05:27:53;11.80;99.90
21672;DHT22;10997;52.242;8.168;2023-05-15T05:32:54;12.00;99.90
21672;DHT22;10997;52.242;8.168;2023-05-15T05:37:55;12.00;99.90
21672;DHT22;10997;52.242;8.168;2023-05-15T05:43:01;12.20;99.90
21672;DHT22;10997;52.242;8.168;2023-05-15T05:48:02;12.30;99.90
21672;DHT22;10997;52.242;8.168;2023-05-15T05:53:03;12.50;99.90
21672;DHT22;10997;52.242;8.168;2023-05-15T05:58:03;12.60;99.90
21672;DHT22;10997;52.242;8.168;2023-05-15T06:03:04;12.70;99.90
21672;DHT22;10997;52.242;8.168;2023-05-15T06:08:05;12.90;99.90
21672;DHT22;10997;52.242;8.168;2023-05-15T06:13:06;13.00;99.90
21672;DHT22;10997;52.242;8.168;2023-05-15T06:18:07;13.20;99.90
21672;DHT22;10997;52.242;8.168;2023-05-15T06:23:08;13.40;99.90
21672;DHT22;10997;52.242;8.168;2023-05-15T06:28:08;13.70;99.90
21672;DHT22;10997;52.242;8.168;2023-05-15T06:33:09;14.00;99.90
21672;DHT22;10997;52.242;8.168;2023-05-15T06:38:09;14.20;99.90
21672;DHT22;10997;52.242;8.168;2023-05-15T06:43:10;14.40;99.90
21672;DHT22;10997;52.242;8.168;2023-05-15T06:48:11;14.20;99.90
21672;DHT22;10997;52.242;8.168;2023-05-15T06:53:11;14.20;99.90
21672;DHT22;10997;52.242;8.168;2023-05-15T06:58:12;14.40;99.90
21672;DHT22;10997;52.242;8.168;2023-05-15T07:03:12;14.70;99.90
21672;DHT22;10997;52.242;8.168;2023-05-15T07:08:13;14.80;99.90
21672;DHT22;10997;52.242;8.168;2023-05-15T07:13:19;14.80;99.90
21672;DHT22;10997;52.242;8.168;2023-05-15T07:18:19;14.80;99.90
21672;DHT22;10997;52.242;8.168;2023-05-15T07:23:20;15.00;99.90
21672;DHT22;10997;52.242;8.168;2023-05-15T07:28:21;15.20;99.90
21672;DHT22;10997;52.242;8.168;2023-05-15T07:33:21;15.50;99.90
21672;DHT22;10997;52.242;8.168;2023-05-15T07:38:22;15.70;99.90
21672;DHT22;10997;52.242;8.168;2023-05-15T07:43:23;16.20;99.90
21672;DHT22;10997;52.242;8.168;2023-05-15T07:48:24;16.10;99.90
21672;DHT22;10997;52.242;8.168;2023-05-15T07:53:24;15.80;99.90
21672;DHT22;10997;52.242;8.168;2023-05-15T07:58:25;15.90;99.90
21672;DHT22;10997;52.242;8.168;2023-05-15T08:03:26;16.10;99.90
21672;DHT22;10997;52.242;8.168;2023-05-15T08:08:27;16.10;99.90
21672;DHT22;10997;52.242;8.168;2023-05-15T08:13:27;15.70;99.90
21672;DHT22;10997;52.242;8.168;2023-05-15T08:18:28;15.70;99.90
21672;DHT22;10997;52.242;8.168;2023-05-15T09:03:38;17.00;99.90
21672;DHT22;10997;52.242;8.168;2023-05-15T09:08:39;17.30;99.90
21672;DHT22;10997;52.242;8.168;2023-05-15T09:13:40;17.20;99.90
21672;DHT22;10997;52.242;8.168;2023-05-15T09:18:41;17.20;99.90
21672;DHT22;10997;52.242;8.168;2023-05-15T09:23:42;17.20;99.90
21672;DHT22;10997;52.242;8.168;2023-05-15T09:28:43;16.90;99.90
21672;DHT22;10997;52.242;8.168;2023-05-15T09:33:44;16.80;99.90
21672;DHT22;10997;52.242;8.168;2023-05-15T09:38:44;16.80;99.90
21672;DHT22;10997;52.242;8.168;2023-05-15T09:43:49;16.40;99.90
21672;DHT22;10997;52.242;8.168;2023-05-15T09:48:53;15.90;99.90
21672;DHT22;10997;52.242;8.168;2023-05-15T09:53:54;16.10;99.90
21672;DHT22;10997;52.242;8.168;2023-05-15T10:13:21;16.90;99.90
21672;DHT22;10997;52.242;8.168;2023-05-15T10:18:23;17.40;99.90
21672;DHT22;10997;52.242;8.168;2023-05-15T10:23:25;17.20;99.90
21672;DHT22;10997;52.242;8.168;2023-05-15T10:28:27;17.40;99.90
21672;DHT22;10997;52.242;8.168;2023-05-15T10:33:28;17.10;99.90
21672;DHT22;10997;52.242;8.168;2023-05-15T10:38:30;17.80;99.90
21672;DHT22;10997;52.242;8.168;2023-05-15T10:43:32;17.60;99.90
21672;DHT22;10997;52.242;8.168;2023-05-15T10:48:34;17.30;99.90
21672;DHT22;10997;52.242;8.168;2023-05-15T10:53:35;17.70;99.90
21672;DHT22;10997;52.242;8.168;2023-05-15T10:58:36;17.90;99.90
21672;DHT22;10997;52.242;8.168;2023-05-15T11:03:37;18.00;99.90
21672;DHT22;10997;52.242;8.168;2023-05-15T11:08:41;18.20;99.90
21672;DHT22;10997;52.242;8.168;2023-05-15T11:19:24;18.40;99.90
21672;DHT22;10997;52.242;8.168;2023-05-15T11:24:57;18.80;99.90
21672;DHT22;10997;52.242;8.168;2023-05-15T11:40:23;18.40;99.90
21672;DHT22;10997;52.242;8.168;2023-05-15T11:45:23;18.80;99.90
21672;DHT22;10997;52.242;8.168;2023-05-15T11:50:24;19.30;99.90
21672;DHT22;10997;52.242;8.168;2023-05-15T11:55:25;19.10;99.90
21672;DHT22;10997;52.242;8.168;2023-05-15T12:00:26;19.20;99.90
21672;DHT22;10997;52.242;8.168;2023-05-15T12:05:27;19.70;99.90
21672;DHT22;10997;52.242;8.168;2023-05-15T12:10:29;19.60;99.90
21672;DHT22;10997;52.242;8.168;2023-05-15T12:15:29;19.70;99.90
21672;DHT22;10997;52.242;8.168;2023-05-15T12:20:32;20.00;99.90
21672;DHT22;10997;52.242;8.168;2023-05-15T12:25:34;19.90;99.90
21672;DHT22;10997;52.242;8.168;2023-05-15T12:30:35;19.50;99.90
21672;DHT22;10997;52.242;8.168;2023-05-15T12:35:40;19.40;99.90
21672;DHT22;10997;52.242;8.168;2023-05-15T12:40:43;19.10;99.90
21672;DHT22;10997;52.242;8.168;2023-05-15T12:45:44;19.30;99.90
21672;DHT22;10997;52.242;8.168;2023-05-15T12:50:44;19.60;99.90
21672;DHT22;10997;52.242;8.168;2023-05-15T12:55:45;20.00;99.90
21672;DHT22;10997;52.242;8.168;2023-05-15T13:00:46;20.20;99.90
21672;DHT22;10997;52.242;8.168;2023-05-15T13:05:48;20.50;99.90
21672;DHT22;10997;52.242;8.168;2023-05-15T13:10:55;20.50;99.90
21672;DHT22;10997;52.242;8.168;2023-05-15T13:15:56;20.40;99.90
21672;DHT22;10997;52.242;8.168;2023-05-15T13:20:57;19.70;99.90
21672;DHT22;10997;52.242;8.168;2023-05-15T13:25:57;20.00;99.90
21672;DHT22;10997;52.242;8.168;2023-05-15T13:30:58;20.50;99.90
21672;DHT22;10997;52.242;8.168;2023-05-15T13:35:58;20.50;99.90
21672;DHT22;10997;52.242;8.168;2023-05-15T13:40:59;20.70;99.90
21672;DHT22;10997;52.242;8.168;2023-05-15T13:46:00;20.50;99.90
21672;DHT22;10997;52.242;8.168;2023-05-15T13:51:00;20.30;99.90
21672;DHT22;10997;52.242;8.168;2023-05-15T13:56:01;19.80;99.90
21672;DHT22;10997;52.242;8.168;2023-05-15T14:01:04;20.40;99.90
21672;DHT22;10997;52.242;8.168;2023-05-15T14:06:06;20.60;99.90
21672;DHT22;10997;52.242;8.168;2023-05-15T14:11:07;20.20;99.90
21672;DHT22;10997;52.242;8.168;2023-05-15T14:16:07;20.30;99.90
21672;DHT22;10997;52.242;8.168;2023-05-15T14:21:08;20.40;99.90
21672;DHT22;10997;52.242;8.168;2023-05-15T14:26:08;20.80;99.90
21672;DHT22;10997;52.242;8.168;2023-05-15T14:31:09;20.60;99.90
21672;DHT22;10997;52.242;8.168;2023-05-15T14:36:11;20.10;99.90
21672;DHT22;10997;52.242;8.168;2023-05-15T14:41:11;20.70;99.90
21672;DHT22;10997;52.242;8.168;2023-05-15T14:46:12;20.90;99.90
21672;DHT22;10997;52.242;8.168;2023-05-15T14:51:12;20.70;99.90
21672;DHT22;10997;52.242;8.168;2023-05-15T14:56:13;21.00;99.90
21672;DHT22;10997;52.242;8.168;2023-05-15T15:01:14;21.50;99.90
21672;DHT22;10997;52.242;8.168;2023-05-15T15:06:15;21.20;98.40
21672;DHT22;10997;52.242;8.168;2023-05-15T15:11:16;21.20;98.20
21672;DHT22;10997;52.242;8.168;2023-05-15T15:16:16;20.50;96.70
21672;DHT22;10997;52.242;8.168;2023-05-15T15:21:17;20.80;97.50
21672;DHT22;10997;52.242;8.168;2023-05-15T15:26:17;21.40;98.70
21672;DHT22;10997;52.242;8.168;2023-05-15T15:31:18;21.30;98.80
21672;DHT22;10997;52.242;8.168;2023-05-15T15:36:18;20.60;96.30
21672;DHT22;10997;52.242;8.168;2023-05-15T15:41:19;20.60;96.20
21672;DHT22;10997;52.242;8.168;2023-05-15T15:46:20;21.00;96.20
21672;DHT22;10997;52.242;8.168;2023-05-15T15:51:21;21.40;97.50
21672;DHT22;10997;52.242;8.168;2023-05-15T15:56:21;22.00;97.80
21672;DHT22;10997;52.242;8.168;2023-05-15T16:01:22;21.60;96.20
21672;DHT22;10997;52.242;8.168;2023-05-15T16:06:23;21.00;96.50
21672;DHT22;10997;52.242;8.168;2023-05-15T16:11:23;20.50;97.20
21672;DHT22;10997;52.242;8.168;2023-05-15T16:16:24;20.80;96.60
21672;DHT22;10997;52.242;8.168;2023-05-15T16:21:25;20.30;97.10
21672;DHT22;10997;52.242;8.168;2023-05-15T16:26:25;19.90;99.10
21672;DHT22;10997;52.242;8.168;2023-05-15T16:31:26;19.80;98.80
21672;DHT22;10997;52.242;8.168;2023-05-15T16:36:26;19.80;99.60
21672;DHT22;10997;52.242;8.168;2023-05-15T16:41:27;19.90;99.40
21672;DHT22;10997;52.242;8.168;2023-05-15T16:46:28;20.30;99.00
21672;DHT22;10997;52.242;8.168;2023-05-15T16:51:28;20.10;99.90
21672;DHT22;10997;52.242;8.168;2023-05-15T16:56:30;20.00;99.90
21672;DHT22;10997;52.242;8.168;2023-05-15T17:01:30;20.20;99.90
21672;DHT22;10997;52.242;8.168;2023-05-15T17:06:31;19.90;99.90
21672;DHT22;10997;52.242;8.168;2023-05-15T17:11:31;19.50;99.90
21672;DHT22;10997;52.242;8.168;2023-05-15T17:16:32;18.80;99.90
21672;DHT22;10997;52.242;8.168;2023-05-15T17:21:33;18.70;99.90
21672;DHT22;10997;52.242;8.168;2023-05-15T17:26:34;18.50;99.90
21672;DHT22;10997;52.242;8.168;2023-05-15T17:31:35;18.50;99.90
21672;DHT22;10997;52.242;8.168;2023-05-15T17:36:36;18.30;99.90
21672;DHT22;10997;52.242;8.168;2023-05-15T17:41:37;17.90;99.90
21672;DHT22;10997;52.242;8.168;2023-05-15T17:46:37;17.80;99.90
21672;DHT22;10997;52.242;8.168;2023-05-15T17:51:38;17.50;99.90
21672;DHT22;10997;52.242;8.168;2023-05-15T17:56:38;17.00;99.90
21672;DHT22;10997;52.242;8.168;2023-05-15T18:01:39;15.80;99.90
21672;DHT22;10997;52.242;8.168;2023-05-15T18:06:39;14.40;99.90
21672;DHT22;10997;52.242;8.168;2023-05-15T18:11:40;14.20;99.90
21672;DHT22;10997;52.242;8.168;2023-05-15T18:16:41;14.00;99.90
21672;DHT22;10997;52.242;8.168;2023-05-15T18:21:41;13.80;99.90
21672;DHT22;10997;52.242;8.168;2023-05-15T18:26:42;13.80;99.90
21672;DHT22;10997;52.242;8.168;2023-05-15T18:31:42;13.80;99.90
21672;DHT22;10997;52.242;8.168;2023-05-15T18:36:43;13.90;99.90
21672;DHT22;10997;52.242;8.168;2023-05-15T18:41:44;13.90;99.90
21672;DHT22;10997;52.242;8.168;2023-05-15T18:46:45;13.90;99.90
21672;DHT22;10997;52.242;8.168;2023-05-15T18:51:45;13.90;99.90
21672;DHT22;10997;52.242;8.168;2023-05-15T18:56:46;13.90;99.90
21672;DHT22;10997;52.242;8.168;2023-05-15T19:01:46;13.90;99.90
21672;DHT22;10997;52.242;8.168;2023-05-15T19:06:48;13.80;99.90
21672;DHT22;10997;52.242;8.168;2023-05-15T19:11:49;13.80;99.90
21672;DHT22;10997;52.242;8.168;2023-05-15T19:16:51;13.70;99.90
21672;DHT22;10997;52.242;8.168;2023-05-15T19:21:52;13.60;99.90
21672;DHT22;10997;52.242;8.168;2023-05-15T19:26:52;13.40;99.90
21672;DHT22;10997;52.242;8.168;2023-05-15T19:31:53;13.30;99.90
21672;DHT22;10997;52.242;8.168;2023-05-15T19:36:54;13.20;99.90
21672;DHT22;10997;52.242;8.168;2023-05-15T19:41:55;13.00;99.90
21672;DHT22;10997;52.242;8.168;2023-05-15T19:46:56;12.80;99.90
21672;DHT22;10997;52.242;8.168;2023-05-15T19:51:57;12.70;99.90
21672;DHT22;10997;52.242;8.168;2023-05-15T19:56:57;12.60;99.90
21672;DHT22;10997;52.242;8.168;2023-05-15T20:02:02;12.50;99.90
21672;DHT22;10997;52.242;8.168;2023-05-15T20:07:03;12.40;99.90
21672;DHT22;10997;52.242;8.168;2023-05-15T20:12:03;12.40;99.90
21672;DHT22;10997;52.242;8.168;2023-05-15T20:17:05;12.30;99.90
21672;DHT22;10997;52.242;8.168;2023-05-15T20:22:06;12.30;99.90
21672;DHT22;10997;52.242;8.168;2023-05-15T20:27:07;12.20;99.90
21672;DHT22;10997;52.242;8.168;2023-05-15T20:32:07;12.20;99.90
21672;DHT22;10997;52.242;8.168;2023-05-15T20:37:08;12.20;99.90
21672;DHT22;10997;52.242;8.168;2023-05-15T20:42:08;12.10;99.90
21672;DHT22;10997;52.242;8.168;2023-05-15T20:47:09;12.10;99.90
21672;DHT22;10997;52.242;8.168;2023-05-15T20:52:10;12.00;99.90
21672;DHT22;10997;52.242;8.168;2023-05-15T20:57:11;11.90;99.90
21672;DHT22;10997;52.242;8.168;2023-05-15T21:02:11;11.90;99.90
21672;DHT22;10997;52.242;8.168;2023-05-15T21:07:12;11.80;99.90
21672;DHT22;10997;52.242;8.168;2023-05-15T21:12:13;11.80;99.90
21672;DHT22;10997;52.242;8.168;2023-05-15T21:17:13;11.70;99.90
21672;DHT22;10997;52.242;8.168;2023-05-15T21:22:14;11.70;99.90
21672;DHT22;10997;52.242;8.168;2023-05-15T21:27:15;11.50;99.90
21672;DHT22;10997;52.242;8.168;2023-05-15T21:32:16;11.40;99.90
21672;DHT22;10997;52.242;8.168;2023-05-15T21:37:16;11.30;99.90
21672;DHT22;10997;52.242;8.168;2023-05-15T21:42:17;11.30;99.90
21672;DHT22;10997;52.242;8.168;2023-05-15T21:47:18;11.30;99.90
21672;DHT22;10997;52.242;8.168;2023-05-15T21:52:18;11.30;99.90
21672;DHT22;10997;52.242;8.168;2023-05-15T21:57:19;11.20;99.90
21672;DHT22;10997;52.242;8.168;2023-05-15T22:02:19;11.20;99.90
21672;DHT22;10997;52.242;8.168;2023-05-15T22:07:20;11.20;99.90
21672;DHT22;10997;52.242;8.168;2023-05-15T22:12:21;11.10;99.90
21672;DHT22;10997;52.242;8.168;2023-05-15T22:17:21;11.00;99.90
21672;DHT22;10997;52.242;8.168;2023-05-15T22:22:23;10.90;99.90
21672;DHT22;10997;52.242;8.168;2023-05-15T22:27:24;10.80;99.90
21672;DHT22;10997;52.242;8.168;2023-05-15T22:32:25;10.80;99.90
21672;DHT22;10997;52.242;8.168;2023-05-15T22:37:25;10.80;99.90
21672;DHT22;10997;52.242;8.168;2023-05-15T22:42:26;10.70;99.90
21672;DHT22;10997;52.242;8.168;2023-05-15T22:47:29;10.70;99.90
21672;DHT22;10997;52.242;8.168;2023-05-15T22:52:30;10.80;99.90
21672;DHT22;10997;52.242;8.168;2023-05-15T22:57:30;10.80;99.90
21672;DHT22;10997;52.242;8.168;2023-05-15T23:02:31;10.80;99.90
21672;DHT22;10997;52.242;8.168;2023-05-15T23:07:32;10.80;99.90
21672;DHT22;10997;52.242;8.168;2023-05-15T23:12:33;10.80;99.90
21672;DHT22;10997;52.242;8.168;2023-05-15T23:17:33;10.80;99.90
21672;DHT22;10997;52.242;8.168;2023-05-15T23:22:34;10.70;99.90
21672;DHT22;10997;52.242;8.168;2023-05-15T23:27:35;10.70;99.90
21672;DHT22;10997;52.242;8.168;2023-05-15T23:32:36;10.70;99.90
21672;DHT22;10997;52.242;8.168;2023-05-15T23:37:36;10.60;99.90
21672;DHT22;10997;52.242;8.168;2023-05-15T23:42:37;10.70;99.90
21672;DHT22;10997;52.242;8.168;2023-05-15T23:47:39;10.70;99.90
21672;DHT22;10997;52.242;8.168;2023-05-15T23:52:39;10.70;99.90
21672;DHT22;10997;52.242;8.168;2023-05-15T23:57:40;10.70;99.90
